Time;durP1;ratioP1;P1;durP2;ratioP2;P2;SDS_P1;SDS_P2;PMS_P1;PMS_P2;Temp;Humidity;BMP_temperature;BMP_pressure;BME280_temperature;BME280_humidity;BME280_pressure;Samples;Min_cycle;Max_cycle;Signal;HPM_P1;HPM_P2
2022/04/30 00:00:29;;;;;;;13.30;7.55;;;7.10;99.90;;;;;;5041713;28;20040;-75
2022/04/30 00:02:59;;;;;;;20.00;7.82;;;7.00;99.90;;;;;;5049142;28;20049;-74
2022/04/30 00:05:33;;;;;;;14.27;7.85;;;7.00;99.90;;;;;;5041122;28;20554;-74
2022/04/30 00:08:00;;;;;;;14.88;8.00;;;7.00;99.90;;;;;;5046489;28;20044;-74
2022/04/30 00:10:26;;;;;;;14.50;7.55;;;7.00;99.90;;;;;;5051739;28;20037;-74
2022/04/30 00:12:52;;;;;;;13.65;7.18;;;7.00;99.90;;;;;;5045361;28;20049;-74
2022/04/30 00:15:19;;;;;;;15.15;8.20;;;7.00;99.90;;;;;;5059563;28;20078;-74
2022/04/30 00:17:44;;;;;;;16.10;7.60;;;6.90;99.90;;;;;;5058120;28;20421;-74
2022/04/30 00:20:10;;;;;;;14.45;7.10;;;7.00;99.90;;;;;;5039520;28;20098;-74
2022/04/30 00:22:35;;;;;;;12.35;6.93;;;7.00;99.90;;;;;;5046493;28;20037;-74
2022/04/30 00:25:01;;;;;;;13.20;7.03;;;6.90;99.90;;;;;;5048400;28;20036;-74
2022/04/30 00:27:28;;;;;;;12.85;7.03;;;6.90;99.90;;;;;;5033248;28;20040;-74
2022/04/30 00:29:54;;;;;;;11.00;7.25;;;6.90;99.90;;;;;;5048796;28;20045;-74
2022/04/30 00:32:21;;;;;;;15.15;7.70;;;6.90;99.90;;;;;;5067005;28;20048;-74
2022/04/30 00:34:47;;;;;;;12.25;6.90;;;6.90;99.90;;;;;;5042780;28;20040;-74
2022/04/30 00:37:13;;;;;;;9.80;6.10;;;6.90;99.90;;;;;;5049602;28;20789;-74
2022/04/30 00:39:39;;;;;;;10.63;6.93;;;6.90;99.90;;;;;;5052299;28;20595;-74
2022/04/30 00:42:05;;;;;;;11.10;6.18;;;6.90;99.90;;;;;;5047807;28;20495;-74
2022/04/30 00:44:30;;;;;;;18.98;6.65;;;6.90;99.90;;;;;;5064919;28;20475;-74
2022/04/30 00:46:56;;;;;;;12.35;7.03;;;6.90;99.90;;;;;;5071438;28;20044;-74
2022/04/30 00:49:22;;;;;;;9.88;6.30;;;6.90;99.90;;;;;;5040990;28;20071;-74
2022/04/30 00:51:50;;;;;;;11.45;6.30;;;6.90;99.90;;;;;;5059215;28;20041;-74
2022/04/30 00:54:19;;;;;;;16.13;6.63;;;6.90;99.90;;;;;;5045129;28;20468;-72
2022/04/30 00:56:51;;;;;;;9.98;6.93;;;6.90;99.90;;;;;;5046467;28;20049;-75
2022/04/30 00:59:18;;;;;;;12.85;7.13;;;6.90;99.90;;;;;;5057848;28;20062;-74
2022/04/30 01:01:45;;;;;;;13.00;6.35;;;6.90;99.90;;;;;;5066300;28;20052;-74
2022/04/30 01:04:12;;;;;;;15.13;5.95;;;6.90;99.90;;;;;;5067733;28;20449;-74
2022/04/30 01:06:57;;;;;;;12.50;5.60;;;6.90;99.90;;;;;;5035432;28;20435;-74
2022/04/30 01:09:31;;;;;;;11.20;6.07;;;6.90;99.90;;;;;;5053473;28;20045;-74
2022/04/30 01:12:10;;;;;;;9.65;6.10;;;6.90;99.90;;;;;;5061038;28;20431;-74
2022/04/30 01:14:38;;;;;;;13.43;6.28;;;6.90;99.90;;;;;;5061325;28;20049;-75
2022/04/30 01:17:06;;;;;;;12.27;6.13;;;6.90;99.90;;;;;;5048263;28;20048;-74
2022/04/30 01:19:37;;;;;;;11.75;6.13;;;6.90;99.90;;;;;;5064348;28;20051;-74
2022/04/30 01:22:30;;;;;;;13.98;6.20;;;6.90;99.90;;;;;;5056221;28;20033;-75
2022/04/30 01:24:59;;;;;;;10.82;5.60;;;6.90;99.90;;;;;;5055483;28;20041;-73
2022/04/30 01:27:26;;;;;;;8.48;5.15;;;6.80;99.90;;;;;;5060843;28;20250;-74
2022/04/30 01:30:03;;;;;;;11.02;5.60;;;6.90;99.90;;;;;;5061459;28;20048;-74
2022/04/30 01:38:10;;;;;;;9.55;5.47;;;6.90;99.90;;;;;;5050497;28;20053;-75
2022/04/30 01:40:36;;;;;;;18.30;5.65;;;6.90;99.90;;;;;;5033922;28;20121;-74
2022/04/30 01:43:04;;;;;;;9.57;5.10;;;6.90;99.90;;;;;;5061329;28;20036;-74
2022/04/30 01:45:29;;;;;;;14.00;6.03;;;6.90;99.90;;;;;;5069642;28;20051;-74
2022/04/30 01:47:57;;;;;;;8.18;5.28;;;6.80;99.90;;;;;;5066048;28;20045;-74
2022/04/30 01:50:23;;;;;;;12.00;6.30;;;6.80;99.90;;;;;;5064326;28;20137;-74
2022/04/30 01:52:49;;;;;;;7.30;5.00;;;6.80;99.90;;;;;;5068585;28;20045;-75
2022/04/30 01:55:15;;;;;;;9.90;6.00;;;6.80;99.90;;;;;;5063489;28;20112;-74
2022/04/30 01:57:42;;;;;;;10.30;5.57;;;6.80;99.90;;;;;;5065689;28;20433;-73
2022/04/30 02:00:14;;;;;;;7.93;5.47;;;6.70;99.90;;;;;;5064241;28;20079;-74
2022/04/30 02:02:45;;;;;;;9.00;5.32;;;6.70;99.90;;;;;;5046736;28;20060;-74
2022/04/30 02:05:13;;;;;;;8.90;5.43;;;6.80;99.90;;;;;;5069770;28;20040;-73
2022/04/30 02:07:45;;;;;;;14.88;5.30;;;6.80;99.90;;;;;;5060171;28;20051;-73
2022/04/30 02:10:12;;;;;;;11.43;5.57;;;6.80;99.90;;;;;;5062682;28;20376;-74
2022/04/30 02:12:39;;;;;;;13.90;5.53;;;6.80;99.90;;;;;;5053241;28;20345;-73
2022/04/30 02:15:08;;;;;;;8.95;5.40;;;6.80;99.90;;;;;;5039936;28;20480;-74
2022/04/30 02:17:36;;;;;;;10.98;5.93;;;6.80;99.90;;;;;;5055281;28;20048;-74
2022/04/30 02:20:22;;;;;;;15.60;5.78;;;6.80;99.90;;;;;;5039716;28;20058;-74
2022/04/30 02:22:56;;;;;;;9.55;5.57;;;6.80;99.90;;;;;;5049197;28;20036;-74
2022/04/30 02:25:23;;;;;;;7.95;5.22;;;6.70;99.90;;;;;;5058573;28;20055;-74
2022/04/30 02:27:55;;;;;;;11.85;6.10;;;6.70;99.90;;;;;;5040477;28;20044;-74
2022/04/30 02:30:22;;;;;;;16.02;5.90;;;6.80;99.90;;;;;;5034474;28;20048;-74
2022/04/30 02:32:50;;;;;;;10.02;5.40;;;6.80;99.90;;;;;;5046058;28;20105;-74
2022/04/30 02:35:21;;;;;;;10.00;5.47;;;6.80;99.90;;;;;;5046518;28;20151;-74
2022/04/30 02:37:49;;;;;;;9.35;5.55;;;6.80;99.90;;;;;;5061343;28;20037;-74
2022/04/30 02:40:19;;;;;;;12.10;5.55;;;6.80;99.90;;;;;;5037019;28;20081;-74
2022/04/30 02:42:46;;;;;;;9.70;5.40;;;6.80;99.90;;;;;;5032698;28;20070;-74
2022/04/30 02:45:15;;;;;;;11.65;5.15;;;6.80;99.90;;;;;;5066101;28;20067;-74
2022/04/30 02:47:42;;;;;;;9.57;5.00;;;6.80;99.90;;;;;;5068404;28;20055;-73
2022/04/30 02:50:11;;;;;;;11.18;4.78;;;6.80;99.90;;;;;;5051322;28;20033;-73
2022/04/30 02:52:37;;;;;;;10.63;5.85;;;6.80;99.90;;;;;;5033503;28;20048;-73
2022/04/30 02:55:07;;;;;;;8.98;5.40;;;6.70;99.90;;;;;;5051125;28;20044;-73
2022/04/30 02:59:53;;;;;;;10.15;5.85;;;6.70;99.90;;;;;;5055695;28;20870;-74
2022/04/30 03:00:34;;;;;;;12.90;6.05;;;6.70;99.90;;;;;;5066306;28;20044;-74
2022/04/30 03:03:00;;;;;;;8.00;5.15;;;6.70;99.90;;;;;;5064312;28;20048;-74
2022/04/30 03:05:26;;;;;;;10.20;5.05;;;6.70;99.90;;;;;;5062359;28;20037;-74
2022/04/30 03:07:53;;;;;;;17.35;5.35;;;6.60;99.90;;;;;;5072552;28;20127;-74
2022/04/30 03:10:19;;;;;;;8.88;5.55;;;6.60;99.90;;;;;;5053390;28;20562;-74
2022/04/30 03:12:45;;;;;;;7.80;5.03;;;6.60;99.90;;;;;;5062501;28;20057;-74
2022/04/30 03:15:11;;;;;;;11.35;5.40;;;6.60;99.90;;;;;;5030834;28;20128;-74
2022/04/30 03:23:09;;;;;;;17.02;6.30;;;6.60;99.90;;;;;;5041182;28;20523;-74
2022/04/30 03:25:35;;;;;;;8.68;5.05;;;6.90;99.90;;;;;;5043610;28;20048;-74
2022/04/30 03:28:00;;;;;;;11.82;5.75;;;6.60;99.90;;;;;;5064401;28;20067;-74
2022/04/30 03:30:26;;;;;;;9.82;5.10;;;6.60;99.90;;;;;;5034842;28;20467;-74
2022/04/30 03:32:52;;;;;;;10.40;5.10;;;6.60;99.90;;;;;;5058641;28;20041;-74
2022/04/30 03:35:18;;;;;;;10.10;5.15;;;6.60;99.90;;;;;;5043176;28;20499;-74
2022/04/30 03:37:43;;;;;;;7.60;5.25;;;6.60;99.90;;;;;;5052700;28;20123;-74
2022/04/30 03:40:09;;;;;;;15.38;5.72;;;6.60;99.90;;;;;;5068130;28;20045;-74
2022/04/30 03:42:35;;;;;;;9.13;4.43;;;6.70;99.90;;;;;;5058350;28;20546;-74
2022/04/30 03:45:05;;;;;;;9.60;5.80;;;6.70;99.90;;;;;;5062549;28;20040;-74
2022/04/30 03:47:33;;;;;;;8.43;5.10;;;6.70;99.90;;;;;;5039156;28;20044;-73
2022/04/30 03:50:01;;;;;;;11.32;5.22;;;7.10;99.90;;;;;;5070044;28;20045;-74
2022/04/30 03:52:30;;;;;;;11.65;5.15;;;6.80;99.90;;;;;;5062479;28;20052;-74
2022/04/30 03:54:56;;;;;;;8.63;5.47;;;6.80;99.90;;;;;;5063401;28;20044;-74
2022/04/30 03:57:21;;;;;;;9.10;5.32;;;6.80;99.90;;;;;;5044208;28;20048;-74
2022/04/30 03:59:47;;;;;;;10.85;5.65;;;6.80;99.90;;;;;;5057498;28;20084;-74
2022/04/30 04:02:13;;;;;;;8.85;4.95;;;6.70;99.90;;;;;;5049589;28;20480;-74
2022/04/30 04:04:38;;;;;;;10.32;5.55;;;6.70;99.90;;;;;;5048609;28;20041;-73
2022/04/30 04:07:04;;;;;;;9.95;4.60;;;6.60;99.90;;;;;;5034726;28;20587;-73
2022/04/30 04:09:30;;;;;;;11.65;5.80;;;6.60;99.90;;;;;;5062824;28;20057;-74
2022/04/30 04:11:55;;;;;;;10.07;5.78;;;6.60;99.90;;;;;;5061582;28;20049;-73
2022/04/30 04:19:50;;;;;;;10.32;5.88;;;6.60;99.90;;;;;;5063746;28;20060;-74
2022/04/30 04:22:15;;;;;;;7.38;4.95;;;6.60;99.90;;;;;;5054743;28;20070;-74
2022/04/30 04:27:25;;;;;;;11.35;4.97;;;6.60;99.90;;;;;;5056819;28;20045;-74
2022/04/30 04:29:54;;;;;;;8.25;5.47;;;6.60;99.90;;;;;;5056907;28;20090;-74
2022/04/30 04:32:20;;;;;;;13.40;4.85;;;6.60;99.90;;;;;;5060190;28;20123;-73
2022/04/30 04:34:46;;;;;;;11.20;5.30;;;6.70;99.90;;;;;;5055943;28;20178;-73
2022/04/30 04:37:12;;;;;;;9.90;4.93;;;6.70;99.90;;;;;;5041896;28;20525;-74
2022/04/30 04:39:37;;;;;;;10.05;5.25;;;6.80;99.90;;;;;;5055672;28;20045;-74
2022/04/30 04:42:03;;;;;;;13.98;5.78;;;6.80;99.90;;;;;;5039069;28;20073;-74
2022/04/30 04:44:29;;;;;;;9.05;5.60;;;6.80;99.90;;;;;;5043981;28;20437;-74
2022/04/30 04:46:55;;;;;;;14.23;5.88;;;6.90;99.90;;;;;;5063338;28;20037;-74
2022/04/30 04:49:20;;;;;;;8.60;5.20;;;6.90;99.90;;;;;;5067542;28;20055;-73
2022/04/30 04:51:46;;;;;;;14.88;4.68;;;6.90;99.90;;;;;;5064255;28;20047;-73
2022/04/30 04:54:11;;;;;;;19.55;7.18;;;6.90;99.90;;;;;;5052441;28;20044;-73
2022/04/30 04:56:38;;;;;;;12.35;6.40;;;6.90;99.90;;;;;;5055494;28;20072;-73
2022/04/30 04:59:04;;;;;;;9.32;6.00;;;6.90;99.90;;;;;;5035509;28;20061;-73
2022/04/30 05:01:29;;;;;;;13.50;5.97;;;6.90;99.90;;;;;;5063161;28;20373;-72
2022/04/30 05:03:55;;;;;;;11.75;6.00;;;7.00;99.90;;;;;;5043631;28;20468;-73
2022/04/30 05:06:21;;;;;;;15.38;5.47;;;7.00;99.90;;;;;;5022661;28;20045;-73
2022/04/30 05:08:46;;;;;;;15.77;5.45;;;7.00;99.90;;;;;;5015791;28;20136;-74
2022/04/30 05:11:12;;;;;;;9.77;6.18;;;7.00;99.90;;;;;;5044578;28;20049;-73
2022/04/30 05:13:37;;;;;;;8.50;5.70;;;7.10;99.90;;;;;;5023231;28;20045;-73
2022/04/30 05:16:03;;;;;;;11.55;6.78;;;7.10;99.90;;;;;;5027247;28;20048;-73
2022/04/30 05:18:29;;;;;;;10.32;5.20;;;7.20;99.90;;;;;;5037293;28;20049;-74
2022/04/30 05:20:55;;;;;;;10.23;6.00;;;7.20;99.90;;;;;;5046555;28;20469;-75
2022/04/30 05:23:20;;;;;;;9.02;5.70;;;7.20;99.90;;;;;;5027124;28;20492;-76
2022/04/30 05:25:46;;;;;;;14.27;6.13;;;7.30;99.90;;;;;;5038841;28;20052;-77
2022/04/30 05:28:11;;;;;;;10.98;5.72;;;7.30;99.90;;;;;;5036156;28;20095;-76
2022/04/30 05:30:38;;;;;;;10.77;5.65;;;7.30;99.90;;;;;;5032961;28;20136;-73
2022/04/30 05:33:04;;;;;;;12.32;6.22;;;7.40;99.90;;;;;;5041098;28;20103;-73
2022/04/30 05:35:29;;;;;;;15.73;6.38;;;7.50;99.90;;;;;;5030494;28;20074;-72
2022/04/30 05:37:55;;;;;;;10.35;5.95;;;7.40;99.90;;;;;;5016885;28;20050;-73
2022/04/30 05:40:21;;;;;;;13.60;6.43;;;7.50;99.90;;;;;;5016407;28;20254;-74
2022/04/30 05:42:47;;;;;;;10.70;5.70;;;7.60;99.90;;;;;;5014261;28;20041;-73
2022/04/30 05:45:15;;;;;;;8.30;5.85;;;7.60;99.90;;;;;;5018270;28;20045;-73
2022/04/30 05:47:41;;;;;;;10.88;5.97;;;7.70;99.90;;;;;;5031840;28;20080;-74
2022/04/30 05:50:07;;;;;;;11.23;6.60;;;7.80;99.90;;;;;;5017033;28;20418;-74
2022/04/30 05:52:34;;;;;;;9.38;5.70;;;7.90;99.90;;;;;;5042785;28;20043;-74
2022/04/30 05:55:02;;;;;;;13.10;6.10;;;7.90;99.90;;;;;;5043477;28;20045;-73
2022/04/30 05:57:28;;;;;;;12.13;6.13;;;8.00;99.90;;;;;;5026241;28;20033;-74
2022/04/30 05:59:55;;;;;;;8.55;5.30;;;8.10;99.90;;;;;;5033383;28;20117;-73
2022/04/30 06:02:21;;;;;;;14.05;6.20;;;8.20;99.90;;;;;;5034570;28;20311;-73
2022/04/30 06:04:46;;;;;;;14.98;6.78;;;8.30;99.90;;;;;;5012668;28;20122;-73
2022/04/30 06:07:12;;;;;;;10.60;6.13;;;8.40;99.90;;;;;;5044220;28;20064;-73
2022/04/30 06:09:38;;;;;;;14.68;5.90;;;8.50;99.90;;;;;;5017616;28;20059;-73
2022/04/30 06:12:04;;;;;;;13.85;6.05;;;8.60;99.90;;;;;;5034907;28;20091;-76
2022/04/30 06:14:30;;;;;;;12.25;6.03;;;8.70;99.90;;;;;;5030085;28;20053;-73
2022/04/30 06:16:57;;;;;;;9.68;5.70;;;8.80;99.90;;;;;;5012666;28;20041;-73
2022/04/30 06:19:23;;;;;;;11.90;5.18;;;8.90;99.90;;;;;;5039573;28;20122;-73
2022/04/30 06:21:49;;;;;;;9.35;5.45;;;8.90;99.90;;;;;;5023891;28;20053;-73
2022/04/30 06:24:15;;;;;;;13.35;5.60;;;9.10;99.90;;;;;;5032474;28;20045;-75
2022/04/30 06:26:42;;;;;;;15.63;5.43;;;9.20;99.90;;;;;;5017550;28;20508;-73
2022/04/30 06:29:09;;;;;;;12.90;5.72;;;9.30;99.90;;;;;;5031492;28;20044;-73
2022/04/30 06:31:35;;;;;;;10.52;4.78;;;9.40;99.90;;;;;;5034017;28;20048;-73
2022/04/30 06:34:00;;;;;;;10.45;4.90;;;9.50;99.90;;;;;;5030927;28;20052;-73
2022/04/30 06:36:26;;;;;;;11.98;5.15;;;9.50;99.90;;;;;;5030322;28;20117;-75
2022/04/30 06:38:52;;;;;;;9.45;4.47;;;9.60;99.90;;;;;;5035680;28;20048;-73
2022/04/30 06:41:19;;;;;;;11.05;5.30;;;9.70;99.90;;;;;;5019872;28;20052;-72
2022/04/30 06:43:45;;;;;;;10.30;4.95;;;9.70;99.90;;;;;;5038375;28;20047;-72
2022/04/30 06:46:11;;;;;;;9.23;4.65;;;9.70;99.90;;;;;;5023009;28;20233;-75
2022/04/30 06:48:36;;;;;;;14.18;4.72;;;9.80;99.90;;;;;;5012579;28;20415;-72
2022/04/30 06:51:02;;;;;;;14.63;5.13;;;9.80;99.90;;;;;;5029592;28;20042;-72
2022/04/30 06:58:59;;;;;;;11.25;4.28;;;9.90;99.90;;;;;;5029956;28;20037;-72
2022/04/30 07:01:30;;;;;;;10.45;5.40;;;9.90;99.90;;;;;;5030101;28;20480;-73
2022/04/30 07:04:01;;;;;;;11.70;4.60;;;10.00;99.90;;;;;;5062677;28;20117;-72
2022/04/30 07:06:28;;;;;;;;;;;10.10;99.90;;;;;;5061777;28;20036;-73
2022/04/30 07:08:54;;;;;;;11.43;3.70;;;10.10;99.90;;;;;;5066944;28;19931;-72
2022/04/30 07:11:19;;;;;;;10.63;4.20;;;10.10;99.90;;;;;;5071111;28;20126;-73
2022/04/30 07:13:46;;;;;;;10.90;5.10;;;10.20;99.90;;;;;;5040166;28;20106;-73
2022/04/30 07:16:11;;;;;;;11.95;4.43;;;10.30;99.90;;;;;;5050615;28;20048;-75
2022/04/30 07:18:37;;;;;;;12.75;4.30;;;10.30;99.90;;;;;;5053927;28;20063;-73
2022/04/30 07:21:03;;;;;;;10.35;5.55;;;10.30;99.90;;;;;;5058996;28;20499;-73
2022/04/30 07:23:28;;;;;;;16.65;5.43;;;10.30;99.90;;;;;;5053147;28;20277;-73
2022/04/30 07:25:54;;;;;;;9.65;5.18;;;10.30;99.90;;;;;;5055113;28;20090;-73
2022/04/30 07:28:19;;;;;;;10.25;4.57;;;10.40;99.90;;;;;;5064421;28;20057;-73
2022/04/30 07:30:45;;;;;;;9.75;5.07;;;10.40;99.90;;;;;;5057529;28;20045;-72
2022/04/30 07:33:11;;;;;;;14.20;5.07;;;10.50;99.90;;;;;;5066217;28;20055;-72
2022/04/30 07:35:36;;;;;;;11.50;5.57;;;10.60;99.90;;;;;;5059817;28;20045;-72
2022/04/30 07:38:02;;;;;;;10.85;5.70;;;10.50;99.90;;;;;;5048578;28;20037;-73
2022/04/30 07:40:27;;;;;;;13.50;6.40;;;10.90;99.90;;;;;;5057811;28;20469;-72
2022/04/30 07:42:53;;;;;;;11.30;4.78;;;10.50;99.90;;;;;;5052311;28;20160;-72
2022/04/30 07:45:18;;;;;;;9.52;4.63;;;10.40;99.90;;;;;;5059026;28;20129;-72
2022/04/30 07:47:44;;;;;;;8.52;4.55;;;10.40;99.90;;;;;;5057753;28;20059;-75
2022/04/30 07:50:10;;;;;;;14.40;4.80;;;10.40;99.90;;;;;;5051182;28;20043;-76
2022/04/30 07:52:36;;;;;;;12.75;5.32;;;10.50;99.90;;;;;;5049644;28;20519;-74
2022/04/30 07:55:03;;;;;;;14.40;5.10;;;10.50;99.90;;;;;;5047917;28;20040;-74
2022/04/30 07:57:29;;;;;;;11.32;5.43;;;10.40;99.90;;;;;;5051130;28;20043;-76
2022/04/30 07:59:55;;;;;;;13.90;4.90;;;10.40;99.90;;;;;;5053661;28;20049;-75
2022/04/30 08:02:21;;;;;;;12.10;5.50;;;10.40;99.90;;;;;;5057197;28;20151;-75
2022/04/30 08:04:46;;;;;;;13.95;4.88;;;10.40;99.90;;;;;;5044979;28;20052;-74
2022/04/30 08:07:12;;;;;;;10.75;6.50;;;10.40;99.90;;;;;;5055649;28;20459;-75
2022/04/30 08:09:38;;;;;;;14.63;5.97;;;10.40;99.90;;;;;;5030604;28;20040;-75
2022/04/30 08:12:04;;;;;;;11.88;5.30;;;10.40;99.90;;;;;;5053121;28;20503;-75
2022/04/30 08:14:29;;;;;;;10.45;5.72;;;10.50;99.90;;;;;;5032039;28;20049;-75
2022/04/30 08:16:55;;;;;;;9.93;5.75;;;10.80;99.90;;;;;;5028930;28;20048;-75
2022/04/30 08:19:21;;;;;;;13.75;6.65;;;10.50;99.90;;;;;;5061554;28;20202;-75
2022/04/30 08:21:48;;;;;;;11.85;6.07;;;10.50;99.90;;;;;;5032908;28;20049;-78
2022/04/30 08:24:15;;;;;;;11.00;6.32;;;10.50;99.90;;;;;;5030278;28;20463;-74
2022/04/30 08:26:40;;;;;;;15.15;6.55;;;10.50;99.90;;;;;;5064144;28;20041;-74
2022/04/30 08:29:06;;;;;;;16.83;6.68;;;10.50;99.90;;;;;;5050624;28;20049;-74
2022/04/30 08:31:32;;;;;;;12.05;6.82;;;10.50;99.90;;;;;;5037569;28;20087;-76
2022/04/30 08:33:58;;;;;;;9.63;6.10;;;10.60;99.90;;;;;;5057814;28;20048;-76
2022/04/30 08:36:23;;;;;;;9.70;6.18;;;10.70;99.90;;;;;;5030310;28;20037;-76
2022/04/30 08:38:49;;;;;;;8.52;6.10;;;10.80;99.90;;;;;;5037197;28;20087;-79
2022/04/30 08:41:16;;;;;;;14.32;5.75;;;10.90;99.90;;;;;;5076696;28;20112;-77
2022/04/30 08:43:47;;;;;;;14.30;6.13;;;10.90;99.90;;;;;;5052755;28;20122;-75
2022/04/30 08:46:13;;;;;;;11.90;5.05;;;11.00;99.90;;;;;;5066359;28;20037;-75
2022/04/30 08:48:40;;;;;;;11.05;4.57;;;11.10;99.90;;;;;;5049993;28;20080;-75
2022/04/30 08:51:06;;;;;;;9.77;5.18;;;11.10;99.90;;;;;;5049218;28;20386;-77
2022/04/30 08:53:32;;;;;;;9.93;5.45;;;11.20;99.90;;;;;;5029809;28;20095;-75
2022/04/30 08:55:57;;;;;;;12.73;4.93;;;11.20;99.90;;;;;;5049598;28;20041;-75
2022/04/30 08:58:23;;;;;;;14.45;5.82;;;11.20;99.90;;;;;;5065525;28;20399;-75
2022/04/30 09:00:49;;;;;;;13.73;5.18;;;11.20;99.90;;;;;;5065023;28;20049;-75
2022/04/30 09:03:19;;;;;;;11.82;5.60;;;11.30;99.90;;;;;;5058659;28;20056;-75
2022/04/30 09:05:45;;;;;;;11.75;5.50;;;11.30;99.90;;;;;;5071171;28;20044;-74
2022/04/30 09:08:11;;;;;;;13.93;5.22;;;11.30;99.90;;;;;;5051597;28;20044;-74
2022/04/30 09:10:43;;;;;;;13.45;5.68;;;11.20;99.90;;;;;;5032777;28;20102;-75
2022/04/30 09:13:12;;;;;;;11.93;5.70;;;11.20;99.90;;;;;;5058835;28;20052;-75
2022/04/30 09:15:46;;;;;;;17.63;6.03;;;11.20;99.90;;;;;;5032955;28;20049;-76
2022/04/30 09:18:15;;;;;;;7.55;5.32;;;11.20;99.90;;;;;;5051062;28;20045;-76
2022/04/30 09:20:43;;;;;;;9.27;5.20;;;11.20;99.90;;;;;;5055551;28;20071;-76
2022/04/30 09:23:10;;;;;;;10.98;6.40;;;11.20;99.90;;;;;;5071865;28;20101;-75
2022/04/30 09:25:35;;;;;;;13.18;5.88;;;11.20;99.90;;;;;;5070154;28;20444;-75
2022/04/30 09:28:03;;;;;;;12.13;6.65;;;11.20;99.90;;;;;;5069540;28;20052;-75
2022/04/30 09:30:29;;;;;;;12.75;6.25;;;11.10;99.90;;;;;;5067886;28;20041;-75
2022/04/30 09:33:05;;;;;;;18.95;5.78;;;11.00;99.90;;;;;;5034570;28;20107;-75
2022/04/30 09:38:16;;;;;;;9.52;5.38;;;11.00;99.90;;;;;;5065427;28;20048;-75
2022/04/30 09:41:06;;;;;;;15.13;5.70;;;11.00;99.90;;;;;;5071694;28;20555;-76
2022/04/30 09:43:34;;;;;;;10.88;5.38;;;11.00;99.90;;;;;;5052421;28;20044;-75
2022/04/30 09:46:00;;;;;;;10.10;6.22;;;10.90;99.90;;;;;;5062614;28;20128;-76
2022/04/30 09:53:58;;;;;;;10.00;5.18;;;10.90;99.90;;;;;;5060156;28;20089;-75
2022/04/30 09:56:36;;;;;;;11.68;4.57;;;10.90;99.90;;;;;;5062521;28;20132;-75
2022/04/30 09:59:04;;;;;;;11.60;4.70;;;10.90;99.90;;;;;;5051284;28;20045;-75
2022/04/30 10:01:32;;;;;;;12.18;4.63;;;10.90;99.90;;;;;;5049065;28;20049;-75
2022/04/30 10:04:00;;;;;;;9.52;4.88;;;10.90;99.90;;;;;;5050753;28;20055;-78
2022/04/30 10:06:26;;;;;;;7.22;4.55;;;10.90;99.90;;;;;;5066958;28;20489;-76
2022/04/30 10:08:52;;;;;;;9.60;4.60;;;10.90;99.90;;;;;;5039985;28;20052;-76
2022/04/30 10:11:41;;;;;;;11.82;4.68;;;10.90;99.90;;;;;;5064554;28;20504;-75
2022/04/30 10:14:23;;;;;;;9.32;4.53;;;10.90;99.90;;;;;;5037012;28;20046;-76
2022/04/30 10:19:35;;;;;;;12.00;5.57;;;10.90;99.90;;;;;;5077182;28;20053;-76
2022/04/30 10:22:14;;;;;;;7.15;4.43;;;10.90;99.90;;;;;;5062206;28;20116;-76
2022/04/30 10:24:45;;;;;;;12.85;4.40;;;11.00;99.90;;;;;;5059489;28;20041;-75
2022/04/30 10:27:11;;;;;;;12.93;4.75;;;10.90;99.90;;;;;;5053116;28;20400;-76
2022/04/30 10:29:37;;;;;;;11.05;4.07;;;11.00;99.90;;;;;;5043848;28;20044;-76
2022/04/30 10:32:05;;;;;;;6.57;3.72;;;11.00;99.90;;;;;;5064679;28;20106;-75
2022/04/30 10:34:32;;;;;;;8.23;4.03;;;11.00;99.90;;;;;;5053969;28;20040;-75
2022/04/30 10:37:01;;;;;;;10.15;4.55;;;11.10;99.90;;;;;;5036019;28;20513;-75
2022/04/30 10:39:27;;;;;;;6.57;4.07;;;11.20;99.90;;;;;;5055160;28;20053;-74
2022/04/30 10:41:53;;;;;;;7.68;3.67;;;11.10;99.90;;;;;;5062660;28;20079;-75
2022/04/30 10:44:32;;;;;;;6.05;3.50;;;11.10;99.90;;;;;;5059709;28;20104;-75
2022/04/30 10:47:14;;;;;;;7.18;3.65;;;11.10;99.90;;;;;;5035307;28;20110;-75
2022/04/30 10:49:40;;;;;;;9.95;3.92;;;11.20;99.90;;;;;;5033415;28;20041;-74
2022/04/30 10:52:08;;;;;;;46.35;4.95;;;11.10;99.90;;;;;;5048055;28;20048;-75
2022/04/30 10:54:34;;;;;;;12.80;4.55;;;11.20;99.90;;;;;;5051560;28;20056;-75
2022/04/30 10:57:04;;;;;;;17.75;4.53;;;11.20;99.90;;;;;;5038048;28;20037;-74
2022/04/30 10:59:30;;;;;;;11.63;4.22;;;11.20;99.90;;;;;;5063789;28;20041;-75
2022/04/30 11:01:56;;;;;;;11.50;4.53;;;11.20;99.90;;;;;;5058154;28;20094;-75
2022/04/30 11:04:25;;;;;;;7.05;4.20;;;11.20;99.90;;;;;;5059862;28;20685;-76
2022/04/30 11:06:53;;;;;;;12.95;4.65;;;11.30;99.90;;;;;;5055386;28;20044;-76
2022/04/30 11:09:20;;;;;;;10.82;4.68;;;11.30;99.90;;;;;;5055731;28;20127;-76
2022/04/30 11:11:47;;;;;;;6.38;4.28;;;11.40;99.90;;;;;;5057733;28;20044;-77
2022/04/30 11:14:13;;;;;;;8.70;4.20;;;11.40;99.90;;;;;;5046351;28;20052;-76
2022/04/30 11:16:49;;;;;;;9.43;4.72;;;11.40;99.90;;;;;;5055219;28;20048;-75
2022/04/30 11:19:17;;;;;;;15.07;5.05;;;11.50;99.90;;;;;;5051575;28;20496;-75
2022/04/30 11:21:52;;;;;;;9.38;5.00;;;11.50;99.90;;;;;;5052197;28;20036;-75
2022/04/30 11:24:29;;;;;;;8.43;4.32;;;11.50;99.90;;;;;;5059965;28;20350;-75
2022/04/30 11:26:55;;;;;;;8.38;4.22;;;11.60;99.90;;;;;;5034432;28;20192;-74
2022/04/30 11:29:21;;;;;;;18.13;6.10;;;11.60;99.90;;;;;;5039710;28;20097;-75
2022/04/30 11:31:50;;;;;;;6.85;4.05;;;11.70;99.90;;;;;;5049429;28;20049;-76
2022/04/30 11:34:16;;;;;;;11.35;4.10;;;11.70;99.90;;;;;;5061603;28;20049;-76
2022/04/30 11:36:44;;;;;;;8.65;4.10;;;11.70;99.90;;;;;;5040862;28;20037;-78
2022/04/30 11:39:11;;;;;;;6.85;3.80;;;11.90;99.90;;;;;;5051270;28;20441;-75
2022/04/30 11:41:38;;;;;;;8.45;3.97;;;11.90;99.90;;;;;;5050848;28;20093;-75
2022/04/30 11:44:04;;;;;;;9.07;4.20;;;11.90;99.90;;;;;;5057658;28;20036;-76
2022/04/30 11:46:30;;;;;;;11.13;4.70;;;11.90;99.90;;;;;;5050138;28;20044;-75
2022/04/30 11:48:55;;;;;;;11.52;4.25;;;11.90;99.90;;;;;;5047732;28;20044;-76
2022/04/30 11:51:23;;;;;;;9.02;4.78;;;11.90;99.90;;;;;;5060245;28;20052;-75
2022/04/30 11:53:49;;;;;;;10.10;4.60;;;12.00;99.90;;;;;;5030900;28;20045;-75
2022/04/30 11:56:15;;;;;;;8.15;3.90;;;12.10;99.90;;;;;;5058048;28;20041;-74
2022/04/30 11:58:44;;;;;;;7.43;4.18;;;12.10;99.90;;;;;;5048983;28;20052;-75
2022/04/30 12:01:32;;;;;;;10.52;3.38;;;12.20;99.90;;;;;;5050203;28;20045;-75
2022/04/30 12:04:00;;;;;;;4.53;2.95;;;12.20;99.90;;;;;;5031184;28;20127;-76
2022/04/30 12:06:27;;;;;;;7.05;2.88;;;12.20;99.90;;;;;;5030715;28;20623;-75
2022/04/30 12:08:53;;;;;;;6.30;3.20;;;12.30;99.90;;;;;;5044002;28;20518;-76
2022/04/30 12:11:19;;;;;;;5.97;3.25;;;12.30;99.90;;;;;;5068888;28;20052;-75
2022/04/30 12:14:02;;;;;;;9.38;4.00;;;12.40;99.90;;;;;;5066399;28;20344;-76
2022/04/30 12:16:39;;;;;;;10.43;5.38;;;12.50;99.90;;;;;;5068981;28;20048;-75
2022/04/30 12:24:57;;;;;;;71.05;7.32;;;12.70;99.90;;;;;;5048919;28;20063;-75
2022/04/30 12:27:23;;;;;;;17.85;6.00;;;12.80;99.90;;;;;;5043842;28;20033;-75
2022/04/30 12:30:14;;;;;;;13.55;5.07;;;12.80;99.90;;;;;;5043252;28;20064;-75
2022/04/30 12:32:49;;;;;;;14.30;4.80;;;12.90;99.90;;;;;;5048560;28;20041;-76
2022/04/30 12:35:22;;;;;;;8.80;4.55;;;13.30;99.90;;;;;;5048014;28;20112;-76
2022/04/30 12:37:48;;;;;;;8.65;4.97;;;13.00;99.90;;;;;;5048673;28;20041;-74
2022/04/30 12:40:14;;;;;;;17.77;4.88;;;13.00;99.90;;;;;;5032715;28;20175;-75
2022/04/30 12:42:41;;;;;;;9.15;4.72;;;13.00;99.90;;;;;;5069695;28;20084;-74
2022/04/30 12:45:07;;;;;;;13.18;4.13;;;13.00;99.90;;;;;;5072700;28;20063;-74
2022/04/30 12:47:33;;;;;;;9.38;4.50;;;13.00;99.90;;;;;;5054434;28;20064;-74
2022/04/30 12:49:59;;;;;;;11.73;5.13;;;12.90;99.90;;;;;;5057646;28;20190;-75
2022/04/30 12:52:25;;;;;;;5.95;4.30;;;12.90;99.90;;;;;;5052503;28;20041;-74
2022/04/30 12:54:51;;;;;;;5.95;4.22;;;12.90;99.90;;;;;;5052308;28;20127;-75
2022/04/30 12:57:16;;;;;;;8.02;3.92;;;12.90;99.90;;;;;;5064101;28;20214;-74
2022/04/30 12:59:42;;;;;;;7.90;3.67;;;13.00;99.90;;;;;;5052768;28;20056;-75
2022/04/30 13:02:08;;;;;;;8.38;4.05;;;12.90;99.90;;;;;;5052221;28;20551;-74
2022/04/30 13:04:35;;;;;;;7.18;3.25;;;12.90;99.90;;;;;;5059120;28;20045;-74
2022/04/30 13:07:05;;;;;;;11.10;4.00;;;12.90;99.90;;;;;;5054558;28;20045;-75
2022/04/30 13:14:59;;;;;;;11.38;3.70;;;12.90;99.90;;;;;;5062280;28;20052;-75
2022/04/30 13:17:24;;;;;;;7.05;3.35;;;12.90;99.90;;;;;;5071660;28;20544;-75
2022/04/30 13:19:51;;;;;;;7.25;2.95;;;12.80;99.90;;;;;;5068591;28;20049;-76
2022/04/30 13:22:16;;;;;;;8.52;3.67;;;12.80;99.90;;;;;;5066735;28;20056;-75
2022/04/30 13:24:42;;;;;;;10.35;3.30;;;12.80;99.90;;;;;;5053882;28;20349;-75
2022/04/30 13:27:10;;;;;;;13.82;4.47;;;12.80;99.90;;;;;;5059618;28;20052;-73
2022/04/30 13:29:36;;;;;;;8.95;3.92;;;12.80;99.90;;;;;;5061857;28;20049;-75
2022/04/30 13:32:01;;;;;;;10.95;3.50;;;12.70;99.90;;;;;;5067639;28;20113;-75
2022/04/30 13:34:27;;;;;;;6.57;3.40;;;12.80;99.90;;;;;;5061308;28;20041;-75